Time;durP1;ratioP1;P1;durP2;ratioP2;P2;SDS_P1;SDS_P2;PMS_P1;PMS_P2;Temp;Humidity;BMP_temperature;BMP_pressure;BME280_temperature;BME280_humidity;BME280_pressure;Samples;Min_cycle;Max_cycle;Signal;HPM_P1;HPM_P2
2023/10/07 00:00:26;;;;;;;8.40;3.80;;;;;;;19.41;45.03;98260.39;105285;1263;74612;-44
2023/10/07 00:02:59;;;;;;;5.00;3.40;;;;;;;19.40;45.12;98258.96;105272;1264;65284;-44
2023/10/07 00:05:35;;;;;;;5.10;3.10;;;;;;;19.40;45.05;98250.65;105303;1260;72640;-42
2023/10/07 00:08:03;;;;;;;4.70;3.30;;;;;;;19.39;45.01;98242.08;105408;1264;61301;-42
2023/10/07 00:10:31;;;;;;;3.90;3.10;;;;;;;19.38;45.18;98234.77;105317;1265;61385;-42
2023/10/07 00:12:58;;;;;;;5.10;3.30;;;;;;;19.37;45.09;98230.38;105516;1260;74661;-43
2023/10/07 00:15:29;;;;;;;4.80;3.20;;;;;;;19.36;45.14;98230.60;105217;1259;66276;-42
2023/10/07 00:18:00;;;;;;;4.50;3.20;;;;;;;19.35;45.13;98231.95;105481;1264;71477;-42
2023/10/07 00:20:28;;;;;;;7.70;3.20;;;;;;;19.35;45.13;98230.16;105159;1265;61282;-42
2023/10/07 00:23:00;;;;;;;5.00;3.10;;;;;;;19.35;45.13;98227.41;104991;1259;61335;-42
2023/10/07 00:25:30;;;;;;;4.70;3.10;;;;;;;19.33;45.05;98223.49;105134;1263;74634;-42
2023/10/07 00:27:58;;;;;;;7.40;3.20;;;;;;;19.32;45.23;98221.92;105541;1259;65587;-42
2023/10/07 00:30:28;;;;;;;6.20;3.40;;;;;;;19.32;45.18;98222.76;105233;1259;72923;-42
2023/10/07 00:32:56;;;;;;;6.30;3.50;;;;;;;19.30;45.18;98217.28;105591;1263;61271;-42
2023/10/07 00:35:24;;;;;;;7.20;3.40;;;;;;;19.31;45.12;98217.59;105206;1259;61272;-42
2023/10/07 00:37:52;;;;;;;4.50;3.20;;;;;;;19.30;45.22;98207.80;105726;1259;73412;-42
2023/10/07 00:40:41;;;;;;;5.50;3.50;;;;;;;19.29;45.18;98201.34;105214;1263;66387;-43
2023/10/07 00:43:11;;;;;;;4.50;3.10;;;;;;;19.29;45.21;98196.19;105283;1265;72610;-42
2023/10/07 00:45:39;;;;;;;5.40;3.50;;;;;;;19.27;45.31;98192.89;105112;1265;61290;-42
2023/10/07 00:48:11;;;;;;;5.20;3.60;;;;;;;19.27;45.26;98187.77;105203;1259;61231;-42
2023/10/07 00:50:38;;;;;;;5.20;3.40;;;;;;;19.26;45.15;98182.84;105157;1263;74369;-42
2023/10/07 00:53:06;;;;;;;6.60;3.50;;;;;;;19.25;45.16;98171.41;104963;1265;66013;-42
2023/10/07 00:55:35;;;;;;;5.70;3.90;;;;;;;19.24;45.20;98166.71;105062;1259;72612;-42
2023/10/07 00:58:26;;;;;;;5.20;3.40;;;;;;;19.23;45.16;98163.81;105174;1265;61262;-42
2023/10/07 01:00:56;;;;;;;6.50;3.90;;;;;;;19.22;45.27;98154.48;105286;1260;61349;-42
2023/10/07 01:03:32;;;;;;;6.10;3.80;;;;;;;19.20;45.23;98153.12;105256;1259;72176;-42
2023/10/07 01:08:29;;;;;;;5.50;3.50;;;;;;;19.18;45.24;98144.56;105176;1259;72681;-42
2023/10/07 01:11:19;;;;;;;6.10;3.80;;;;;;;19.17;45.34;98146.02;105196;1264;61183;-42
2023/10/07 01:13:56;;;;;;;5.90;3.60;;;;;;;19.15;45.28;98147.60;105207;1259;61360;-42
2023/10/07 01:16:47;;;;;;;5.00;3.80;;;;;;;19.14;45.28;98148.04;105276;1259;73666;-42
2023/10/07 01:21:58;;;;;;;6.70;3.90;;;;;;;19.12;45.33;98138.91;105194;1259;72614;-43
2023/10/07 01:27:17;;;;;;;6.80;3.80;;;;;;;19.10;45.31;98107.69;105045;1259;61408;-42
2023/10/07 01:29:48;;;;;;;6.20;3.80;;;;;;;19.10;45.36;98095.66;105158;1263;74341;-42
2023/10/07 01:32:17;;;;;;;7.80;3.30;;;;;;;19.09;45.38;98082.60;105075;1263;65813;-42
2023/10/07 01:34:47;;;;;;;7.60;3.60;;;;;;;19.09;45.50;98083.52;105152;1259;72644;-42
2023/10/07 01:37:20;;;;;;;7.20;4.10;;;;;;;19.08;45.39;98081.02;105099;1263;61299;-42
2023/10/07 01:39:49;;;;;;;6.30;3.70;;;;;;;19.08;45.43;98083.64;105093;1264;63189;-42
2023/10/07 01:42:36;;;;;;;6.30;3.70;;;;;;;19.07;45.46;98070.52;105068;1264;74643;-42
2023/10/07 01:45:39;;;;;;;9.40;4.30;;;;;;;19.06;45.42;98071.12;105040;1265;65158;-42
2023/10/07 01:48:06;;;;;;;6.70;3.40;;;;;;;19.06;45.51;98066.45;105194;1260;72733;-42
2023/10/07 01:50:40;;;;;;;9.20;3.90;;;;;;;19.06;45.41;98067.66;105172;1263;61287;-42
2023/10/07 01:53:08;;;;;;;5.80;3.70;;;;;;;19.06;45.50;98066.44;105255;1259;61183;-42
2023/10/07 01:55:42;;;;;;;6.30;3.80;;;;;;;19.05;45.39;98057.27;105272;1261;74646;-42
2023/10/07 01:58:14;;;;;;;7.40;3.20;;;;;;;19.05;45.51;98051.45;105130;1264;64967;-42
2023/10/07 02:00:46;;;;;;;4.60;3.20;;;;;;;19.05;45.52;98040.82;104881;1262;72583;-42
2023/10/07 02:03:16;;;;;;;7.80;3.60;;;;;;;19.06;45.53;98036.34;105244;1259;61348;-42
2023/10/07 02:05:49;;;;;;;6.20;3.50;;;;;;;19.06;45.47;98024.23;105270;1259;61375;-42
2023/10/07 02:08:22;;;;;;;6.20;3.40;;;;;;;19.05;45.46;98025.55;105338;1260;74439;-42
2023/10/07 02:10:58;;;;;;;8.60;3.70;;;;;;;19.06;45.56;98017.66;105297;1264;64476;-42
2023/10/07 02:13:29;;;;;;;4.60;3.70;;;;;;;19.06;45.53;98023.70;105335;1259;72626;-42
2023/10/07 02:15:57;;;;;;;6.70;3.70;;;;;;;19.04;45.55;98015.67;105309;1259;61316;-42
2023/10/07 02:18:27;;;;;;;5.80;3.10;;;;;;;19.04;45.49;98015.90;105170;1259;61299;-42
2023/10/07 02:21:08;;;;;;;5.40;3.10;;;;;;;19.04;45.59;98010.86;105196;1265;74431;-42
2023/10/07 02:23:43;;;;;;;6.20;3.50;;;;;;;19.04;45.60;98003.56;105317;1263;66251;-42
2023/10/07 02:26:20;;;;;;;4.80;3.40;;;;;;;19.04;45.62;98000.70;105344;1259;71813;-42
2023/10/07 02:28:51;;;;;;;7.10;3.70;;;;;;;19.03;45.60;97990.05;105337;1265;61347;-42
2023/10/07 02:31:20;;;;;;;6.90;3.60;;;;;;;19.03;45.48;97990.27;105269;1264;61194;-42
2023/10/07 02:33:51;;;;;;;6.80;3.60;;;;;;;19.02;45.68;97986.37;105316;1263;74615;-42
2023/10/07 02:36:32;;;;;;;5.50;3.40;;;;;;;19.02;45.54;97983.13;105348;1259;66432;-42
2023/10/07 02:39:26;;;;;;;5.80;3.40;;;;;;;19.01;45.50;97976.73;105163;1260;72644;-42
2023/10/07 02:41:54;;;;;;;7.40;3.50;;;;;;;19.01;45.53;97974.31;104878;1265;61383;-42
2023/10/07 02:44:27;;;;;;;5.60;3.10;;;;;;;19.00;45.49;97970.73;105083;1259;61373;-42
2023/10/07 02:46:56;;;;;;;6.80;3.80;;;;;;;19.00;45.54;97964.14;104888;1260;73461;-42
2023/10/07 02:49:25;;;;;;;5.80;3.60;;;;;;;18.99;45.58;97961.22;105141;1265;65093;-44
2023/10/07 02:51:56;;;;;;;7.40;3.40;;;;;;;18.98;45.60;97961.45;105018;1260;72503;-44
2023/10/07 02:54:32;;;;;;;5.30;3.30;;;;;;;18.99;45.61;97954.64;105166;1265;61286;-44
2023/10/07 02:57:07;;;;;;;4.10;3.00;;;;;;;18.98;45.64;97952.83;105127;1259;61317;-44
2023/10/07 02:59:36;;;;;;;5.10;3.30;;;;;;;18.98;45.60;97943.44;105242;1259;74429;-42
2023/10/07 03:02:12;;;;;;;6.10;3.20;;;;;;;18.97;45.60;97933.89;105365;1263;66263;-43
2023/10/07 03:05:14;;;;;;;5.00;3.20;;;;;;;18.97;45.63;97923.88;105310;1259;72633;-43
2023/10/07 03:07:42;;;;;;;5.80;3.30;;;;;;;18.96;45.74;97925.26;105293;1265;61311;-43
2023/10/07 03:10:29;;;;;;;5.70;3.30;;;;;;;18.96;45.64;97919.98;105321;1263;61369;-43
2023/10/07 03:12:57;;;;;;;5.20;3.20;;;;;;;18.96;45.73;97910.45;105598;1259;75148;-43
2023/10/07 03:18:03;;;;;;;6.20;3.50;;;;;;;18.96;45.75;97896.25;105497;1263;72635;-43
2023/10/07 03:23:11;;;;;;;5.30;3.20;;;;;;;18.98;45.74;97886.30;105261;1259;61365;-42
2023/10/07 03:26:05;;;;;;;5.60;3.00;;;;;;;18.98;45.81;97880.95;105287;1262;74450;-42
2023/10/07 03:28:38;;;;;;;4.40;3.00;;;;;;;18.98;45.81;97878.23;105325;1260;65628;-41
2023/10/07 03:31:10;;;;;;;6.00;3.00;;;;;;;18.98;45.78;97877.00;105222;1263;71500;-44
2023/10/07 03:33:45;;;;;;;4.60;3.30;;;;;;;18.99;45.85;97876.94;105304;1263;61395;-42
2023/10/07 03:41:55;;;;;;;5.20;3.10;;;;;;;19.00;45.81;97862.56;105215;1265;66183;-42
2023/10/07 03:44:25;;;;;;;4.40;2.80;;;;;;;19.01;45.90;97855.27;105249;1260;72578;-42
2023/10/07 03:46:55;;;;;;;4.20;2.90;;;;;;;19.01;45.97;97857.91;105299;1260;61331;-42
2023/10/07 03:49:23;;;;;;;5.20;3.20;;;;;;;19.01;45.98;97855.74;105284;1260;61359;-42
2023/10/07 03:52:07;;;;;;;7.30;2.70;;;;;;;19.01;46.01;97852.04;105329;1264;74410;-42
2023/10/07 03:54:35;;;;;;;4.80;3.00;;;;;;;19.02;45.92;97842.20;105352;1260;66369;-42
2023/10/07 03:57:02;;;;;;;4.90;3.00;;;;;;;19.02;46.02;97836.16;105306;1259;72719;-42
2023/10/07 03:59:34;;;;;;;5.60;3.10;;;;;;;19.03;46.00;97826.95;105099;1262;61329;-41
2023/10/07 04:02:12;;;;;;;4.60;2.90;;;;;;;19.03;46.02;97824.79;105065;1260;61269;-42
2023/10/07 04:04:41;;;;;;;5.40;3.10;;;;;;;19.03;46.09;97817.81;105307;1265;74534;-42
2023/10/07 04:07:10;;;;;;;5.50;2.80;;;;;;;19.03;46.08;97813.15;105360;1260;66325;-42
2023/10/07 04:09:38;;;;;;;6.40;2.80;;;;;;;19.03;46.22;97811.45;105260;1262;72612;-43
2023/10/07 04:12:06;;;;;;;3.80;3.00;;;;;;;19.03;46.10;97810.27;105333;1264;61269;-43
2023/10/07 04:14:35;;;;;;;5.10;2.90;;;;;;;19.03;46.17;97815.40;105348;1259;61260;-43
2023/10/07 04:17:11;;;;;;;4.00;2.80;;;;;;;19.03;46.26;97808.51;105313;1270;74493;-43
2023/10/07 04:19:52;;;;;;;4.90;2.80;;;;;;;19.05;46.27;97804.73;105105;1263;66085;-43
2023/10/07 04:22:19;;;;;;;3.80;2.90;;;;;;;19.05;46.33;97806.06;105032;1259;72446;-43
2023/10/07 04:24:50;;;;;;;4.00;2.80;;;;;;;19.06;46.32;97801.83;105014;1264;61282;-43
2023/10/07 04:27:21;;;;;;;4.90;2.50;;;;;;;19.05;46.35;97797.31;104998;1260;61280;-43
2023/10/07 04:29:51;;;;;;;4.30;2.70;;;;;;;19.06;46.32;97790.64;105051;1263;74412;-43
2023/10/07 04:32:23;;;;;;;4.90;3.00;;;;;;;19.06;46.37;97784.45;105114;1260;66224;-43
2023/10/07 04:37:54;;;;;;;3.20;2.30;;;;;;;19.06;46.44;97781.44;105086;1263;61263;-43
2023/10/07 04:43:36;;;;;;;4.20;3.00;;;;;;;19.06;46.49;97768.88;104993;1260;74312;-43
2023/10/07 04:45:49;;;;;;;5.30;2.60;;;;;;;19.07;46.49;97773.95;105080;1264;65860;-43
2023/10/07 04:48:42;;;;;;;4.50;2.80;;;;;;;19.08;46.53;97772.17;105232;1263;72594;-43
2023/10/07 04:51:13;;;;;;;3.20;2.70;;;;;;;19.08;46.46;97771.55;105451;1262;61283;-43
2023/10/07 04:53:41;;;;;;;5.00;2.70;;;;;;;19.08;46.55;97766.99;105430;1260;61362;-43
2023/10/07 04:56:10;;;;;;;6.30;2.90;;;;;;;19.09;46.58;97767.33;105441;1260;75048;-43
2023/10/07 04:58:39;;;;;;;3.60;2.70;;;;;;;19.09;46.61;97769.97;105484;1262;65206;-43
2023/10/07 05:04:13;;;;;;;4.50;2.50;;;;;;;19.11;46.60;97758.45;104664;1271;62006;-43
2023/10/07 05:06:42;;;;;;;3.80;2.60;;;;;;;19.11;46.68;97749.21;105081;1263;61504;-43
2023/10/07 05:09:10;;;;;;;4.60;2.70;;;;;;;19.11;46.66;97753.34;105315;1263;74609;-42
2023/10/07 05:11:49;;;;;;;3.20;2.40;;;;;;;19.12;46.65;97747.21;105239;1263;66457;-43
2023/10/07 05:14:22;;;;;;;3.50;2.50;;;;;;;19.12;46.68;97743.66;105228;1260;72434;-43
2023/10/07 05:16:49;;;;;;;3.30;2.40;;;;;;;19.12;46.70;97739.55;105209;1260;62874;-43
2023/10/07 05:19:22;;;;;;;3.70;2.50;;;;;;;19.13;46.75;97738.09;105217;1260;61372;-43
2023/10/07 05:22:04;;;;;;;4.10;2.50;;;;;;;19.13;46.75;97731.13;105133;1259;72438;-43
2023/10/07 05:24:35;;;;;;;4.40;2.40;;;;;;;19.13;46.73;97723.84;105242;1265;64767;-43
2023/10/07 05:27:04;;;;;;;3.50;2.70;;;;;;;19.14;46.75;97716.48;105085;1260;72540;-43
2023/10/07 05:29:32;;;;;;;3.40;2.40;;;;;;;19.15;46.74;97717.49;105279;1263;61152;-43
2023/10/07 05:32:00;;;;;;;2.90;2.20;;;;;;;19.16;46.72;97715.49;105123;1272;61318;-43
2023/10/07 05:34:29;;;;;;;3.10;2.50;;;;;;;19.16;46.79;97713.25;105135;1260;74627;-44
2023/10/07 05:37:10;;;;;;;4.00;2.30;;;;;;;19.16;46.69;97706.59;105115;1263;66117;-43
2023/10/07 05:39:41;;;;;;;4.30;2.70;;;;;;;19.16;46.59;97708.45;105134;1262;72559;-43
2023/10/07 05:42:11;;;;;;;4.00;2.40;;;;;;;19.17;46.74;97699.70;105174;1262;61237;-43
2023/10/07 05:44:40;;;;;;;3.40;2.50;;;;;;;19.17;46.61;97701.66;105120;1263;61292;-43
2023/10/07 05:47:09;;;;;;;3.60;2.10;;;;;;;19.18;46.67;97696.61;105101;1260;74654;-43
2023/10/07 05:49:37;;;;;;;3.30;2.20;;;;;;;19.18;46.63;97694.54;105365;1263;66142;-43
2023/10/07 05:52:05;;;;;;;3.30;2.30;;;;;;;19.18;46.66;97694.77;105393;1260;72357;-43
2023/10/07 05:54:33;;;;;;;4.70;2.70;;;;;;;19.19;46.50;97693.39;105105;1264;61359;-43
2023/10/07 05:57:03;;;;;;;3.00;2.40;;;;;;;19.19;46.59;97694.96;105386;1262;61270;-42
2023/10/07 05:59:34;;;;;;;2.40;1.90;;;;;;;19.20;46.50;97693.33;105270;1265;74330;-42
2023/10/07 06:02:05;;;;;;;2.90;2.50;;;;;;;19.20;46.45;97696.52;105168;1263;65019;-43
2023/10/07 06:04:35;;;;;;;3.30;2.20;;;;;;;19.21;46.40;97690.25;105157;1261;72578;-43
2023/10/07 06:07:07;;;;;;;3.40;2.00;;;;;;;19.22;46.40;97692.92;105433;1263;61282;-42
2023/10/07 06:09:41;;;;;;;3.60;2.40;;;;;;;19.21;46.28;97689.73;105347;1263;61283;-42
2023/10/07 06:12:09;;;;;;;4.10;2.50;;;;;;;19.21;46.32;97682.35;105320;1262;74692;-41
2023/10/07 06:14:36;;;;;;;3.30;2.30;;;;;;;19.22;46.33;97684.23;105373;1265;66241;-42
2023/10/07 06:17:06;;;;;;;3.30;2.10;;;;;;;19.22;46.23;97679.98;105223;1261;72630;-44
2023/10/07 06:19:34;;;;;;;4.60;2.50;;;;;;;19.23;46.15;97672.06;105268;1273;61276;-42
2023/10/07 06:22:11;;;;;;;5.90;2.40;;;;;;;19.23;46.20;97668.89;105282;1262;61206;-42
2023/10/07 06:24:39;;;;;;;3.00;2.30;;;;;;;19.24;46.21;97663.20;105232;1264;74645;-44
2023/10/07 06:27:11;;;;;;;4.10;2.10;;;;;;;19.24;46.09;97654.98;105111;1263;65585;-42
2023/10/07 06:29:45;;;;;;;3.10;2.10;;;;;;;19.25;46.04;97668.23;105348;1263;72703;-42
2023/10/07 06:32:22;;;;;;;4.30;2.00;;;;;;;19.25;46.05;97656.84;105313;1262;61320;-42
2023/10/07 06:34:52;;;;;;;3.60;2.50;;;;;;;19.26;45.92;97660.59;105319;1263;61270;-44
2023/10/07 06:37:26;;;;;;;4.90;2.20;;;;;;;19.26;45.88;97661.52;105172;1262;74670;-44
2023/10/07 06:39:53;;;;;;;4.30;2.30;;;;;;;19.26;45.81;97654.77;105178;1263;65637;-44
2023/10/07 06:42:24;;;;;;;3.30;2.00;;;;;;;19.27;45.77;97656.41;105327;1264;72656;-43
2023/10/07 06:44:55;;;;;;;4.40;2.00;;;;;;;19.27;45.74;97656.48;105487;1272;61722;-44
2023/10/07 06:47:24;;;;;;;4.60;2.00;;;;;;;19.29;45.75;97659.96;105467;1260;61334;-43
2023/10/07 06:49:52;;;;;;;6.00;2.60;;;;;;;19.29;45.70;97658.87;105334;1263;75069;-43
2023/10/07 06:52:22;;;;;;;4.10;2.20;;;;;;;19.29;45.57;97656.16;105326;1263;66272;-43
2023/10/07 06:54:54;;;;;;;4.10;2.10;;;;;;;19.29;45.49;97650.64;105415;1260;72549;-43
2023/10/07 06:57:34;;;;;;;3.70;2.40;;;;;;;19.29;45.51;97651.66;105225;1263;61260;-43
2023/10/07 07:00:09;;;;;;;2.60;2.00;;;;;;;19.30;45.48;97646.94;105277;1261;61284;-43
2023/10/07 07:02:36;;;;;;;;;;;;;;;19.31;45.42;97640.69;105814;1262;74396;-43
2023/10/07 07:05:13;;;;;;;3.50;2.00;;;;;;;19.31;45.48;97642.62;105459;1264;65662;-42
2023/10/07 07:07:41;;;;;;;3.80;2.20;;;;;;;19.31;45.45;97640.84;105375;1261;72578;-43
2023/10/07 07:10:16;;;;;;;3.10;2.20;;;;;;;19.31;45.38;97640.39;105384;1262;61275;-43
2023/10/07 07:12:44;;;;;;;3.70;2.20;;;;;;;19.32;45.39;97645.66;105270;1263;61276;-43
2023/10/07 07:15:26;;;;;;;3.00;2.10;;;;;;;19.32;45.33;97641.41;105372;1264;75143;-42
2023/10/07 07:20:55;;;;;;;4.00;2.10;;;;;;;19.33;45.36;97625.44;105103;1261;72522;-44
2023/10/07 07:23:42;;;;;;;3.30;1.90;;;;;;;19.33;45.24;97637.07;105273;1260;61398;-44
2023/10/07 07:26:11;;;;;;;5.50;2.30;;;;;;;19.34;45.18;97638.71;105288;1260;61232;-42
2023/10/07 07:28:43;;;;;;;3.40;2.30;;;;;;;19.34;45.21;97634.07;105335;1263;74570;-42
2023/10/07 07:31:11;;;;;;;5.00;2.20;;;;;;;19.34;45.19;97633.07;105442;1263;66290;-42
2023/10/07 07:33:39;;;;;;;8.60;2.50;;;;;;;19.35;45.07;97635.02;105195;1260;72627;-42
2023/10/07 07:36:09;;;;;;;4.10;2.10;;;;;;;19.35;45.08;97621.38;105210;1259;61295;-42
2023/10/07 07:38:47;;;;;;;4.60;2.10;;;;;;;19.35;44.98;97628.66;105146;1258;61398;-44
2023/10/07 07:41:29;;;;;;;7.10;2.20;;;;;;;19.35;45.01;97623.55;105040;1262;74592;-43
2023/10/07 07:43:59;;;;;;;5.30;2.20;;;;;;;19.35;44.86;97634.95;105360;1263;65367;-44
2023/10/07 07:46:30;;;;;;;3.70;2.00;;;;;;;19.35;44.73;97627.52;105313;1264;71460;-43
2023/10/07 07:49:05;;;;;;;7.90;2.20;;;;;;;19.35;44.81;97624.58;105131;1274;61343;-42
2023/10/07 07:51:37;;;;;;;;;;;;;;;19.35;44.70;97624.31;105446;1260;61326;-42
2023/10/07 07:54:06;;;;;;;4.50;1.90;;;;;;;19.34;44.76;97622.75;105191;1263;74767;-42
2023/10/07 07:56:34;;;;;;;6.30;2.20;;;;;;;19.34;44.73;97619.63;105133;1263;66301;-42
2023/10/07 07:59:14;;;;;;;8.90;2.30;;;;;;;19.34;44.60;97617.93;105448;1260;72101;-42
2023/10/07 08:01:53;;;;;;;7.10;2.10;;;;;;;19.35;44.68;97609.42;105036;1264;61896;-42
2023/10/07 08:07:18;;;;;;;8.10;2.40;;;;;;;19.34;44.58;97615.37;105082;1262;74575;-43
2023/10/07 08:09:50;;;;;;;8.40;2.70;;;;;;;19.34;44.59;97624.23;105179;1264;66218;-42
2023/10/07 08:12:28;;;;;;;9.40;2.20;;;;;;;19.34;44.55;97611.19;105390;1264;72314;-43
2023/10/07 08:14:58;;;;;;;5.90;2.20;;;;;;;19.34;44.50;97618.63;105476;1260;61378;-43
2023/10/07 08:17:27;;;;;;;3.40;2.20;;;;;;;19.35;44.56;97616.88;105268;1262;61171;-43
2023/10/07 08:19:56;;;;;;;6.10;2.20;;;;;;;19.34;44.56;97616.69;105471;1259;74586;-42
2023/10/07 08:22:27;;;;;;;6.40;2.40;;;;;;;19.35;44.60;97608.88;105114;1262;66812;-43
2023/10/07 08:25:00;;;;;;;6.80;2.30;;;;;;;19.35;44.60;97605.02;105336;1259;72681;-42
2023/10/07 08:27:43;;;;;;;8.00;2.60;;;;;;;19.36;44.65;97606.20;105418;1261;61254;-42
2023/10/07 08:30:14;;;;;;;8.20;2.20;;;;;;;19.36;44.63;97601.73;105301;1261;61369;-42
2023/10/07 08:32:42;;;;;;;3.40;1.90;;;;;;;19.36;44.74;97600.02;105083;1263;74513;-42
2023/10/07 08:35:16;;;;;;;8.70;1.90;;;;;;;19.37;44.76;97596.23;105478;1263;66097;-42
2023/10/07 08:37:47;;;;;;;4.90;2.30;;;;;;;19.38;44.81;97597.50;105898;1260;72620;-42
2023/10/07 08:40:26;;;;;;;6.20;2.40;;;;;;;19.39;44.85;97604.56;105506;1262;61333;-42
2023/10/07 08:42:58;;;;;;;6.50;2.40;;;;;;;19.39;44.82;97596.58;105763;1260;61884;-44
2023/10/07 08:45:30;;;;;;;8.00;2.50;;;;;;;19.39;44.79;97600.85;105209;1260;73382;-42
2023/10/07 08:48:16;;;;;;;7.90;2.60;;;;;;;19.40;44.86;97599.86;105636;1259;65009;-44
2023/10/07 08:50:58;;;;;;;8.20;2.30;;;;;;;19.40;44.94;97607.92;105454;1260;72652;-42
2023/10/07 08:53:26;;;;;;;8.40;2.30;;;;;;;19.40;44.97;97600.94;105112;1265;61348;-42
2023/10/07 08:55:57;;;;;;;6.30;2.30;;;;;;;19.39;45.14;97597.36;105462;1259;61245;-43
2023/10/07 08:58:27;;;;;;;7.60;2.50;;;;;;;19.39;45.15;97598.90;105368;1262;74606;-43
2023/10/07 09:00:55;;;;;;;8.60;2.40;;;;;;;19.38;45.24;97594.33;105216;1262;66166;-43
2023/10/07 09:03:28;;;;;;;6.50;2.40;;;;;;;19.39;45.31;97597.13;105294;1261;182385;-43
2023/10/07 09:06:06;;;;;;;7.30;2.40;;;;;;;19.38;45.23;97584.85;105060;1265;61304;-43
2023/10/07 09:08:33;;;;;;;5.80;2.30;;;;;;;19.38;45.21;97592.07;105173;1260;61459;-42
2023/10/07 09:11:07;;;;;;;4.60;2.30;;;;;;;19.38;45.20;97586.02;105042;1262;74595;-43
2023/10/07 09:13:38;;;;;;;7.40;2.40;;;;;;;19.38;45.24;97576.63;105204;1263;65076;-42
2023/10/07 09:16:10;;;;;;;8.90;2.40;;;;;;;19.39;45.20;97573.77;105240;1262;72592;-42
2023/10/07 09:18:41;;;;;;;10.00;2.60;;;;;;;19.39;45.23;97575.09;105362;1262;61283;-42
2023/10/07 09:21:33;;;;;;;4.30;2.40;;;;;;;19.40;45.28;97567.90;105297;1261;61280;-42
2023/10/07 09:24:01;;;;;;;3.30;2.20;;;;;;;19.41;45.24;97571.86;105188;1264;74537;-43
2023/10/07 09:26:34;;;;;;;5.70;2.50;;;;;;;19.41;45.17;97566.52;105200;1264;64891;-42
2023/10/07 09:29:15;;;;;;;7.80;2.60;;;;;;;19.41;45.10;97562.80;105282;1260;72370;-43
2023/10/07 09:31:43;;;;;;;5.30;2.40;;;;;;;19.42;45.22;97564.45;105198;1263;61369;-41
2023/10/07 09:34:11;;;;;;;6.00;2.50;;;;;;;19.43;45.20;97557.64;105267;1260;61475;-43
2023/10/07 09:36:43;;;;;;;3.90;2.40;;;;;;;19.44;45.15;97573.55;105165;1263;74580;-42
2023/10/07 09:41:55;;;;;;;5.20;2.60;;;;;;;19.43;45.13;97581.23;104977;1264;72450;-43
2023/10/07 09:44:28;;;;;;;6.40;2.40;;;;;;;19.43;45.33;97570.99;105080;1264;61296;-43
2023/10/07 09:47:02;;;;;;;5.10;2.40;;;;;;;19.43;45.21;97568.83;105053;1264;61382;-42
2023/10/07 09:49:30;;;;;;;7.60;2.90;;;;;;;19.43;45.42;97560.52;105018;1261;73116;-43
2023/10/07 09:52:15;;;;;;;6.00;3.10;;;;;;;19.42;45.44;97559.51;104996;1263;65081;-43
2023/10/07 09:55:18;;;;;;;8.70;3.70;;;;;;;19.42;45.54;97539.15;105012;1261;72536;-44
2023/10/07 09:57:59;;;;;;;11.20;3.40;;;;;;;19.41;45.62;97541.84;105701;1263;61254;-43
2023/10/07 10:03:12;;;;;;;7.30;3.30;;;;;;;19.41;45.80;97537.11;105277;1260;74577;-42
2023/10/07 10:05:49;;;;;;;7.20;3.80;;;;;;;19.42;45.91;97540.56;105115;1263;66357;-42
2023/10/07 10:08:27;;;;;;;6.80;3.20;;;;;;;19.43;46.07;97548.95;105242;1263;71437;-42
2023/10/07 10:13:52;;;;;;;8.70;4.00;;;;;;;19.45;46.21;97544.48;104802;1261;61379;-42
2023/10/07 10:16:44;;;;;;;9.30;3.70;;;;;;;19.45;46.45;97551.10;105057;1264;73439;-43
2023/10/07 10:19:35;;;;;;;11.20;3.60;;;;;;;19.45;46.42;97549.08;105203;1263;65374;-43
2023/10/07 10:22:10;;;;;;;11.00;3.40;;;;;;;19.46;46.66;97540.77;104993;1261;72527;-42
2023/10/07 10:24:44;;;;;;;10.00;4.00;;;;;;;19.45;46.73;97536.66;105076;1260;61273;-42
2023/10/07 10:27:11;;;;;;;7.40;3.50;;;;;;;19.45;46.95;97530.75;105012;1264;61285;-44
2023/10/07 10:30:10;;;;;;;6.40;3.40;;;;;;;19.45;46.99;97523.46;104998;1264;74338;-43
2023/10/07 10:32:37;;;;;;;7.40;3.60;;;;;;;19.45;46.88;97516.88;104979;1265;66300;-43
2023/10/07 10:35:11;;;;;;;9.50;3.40;;;;;;;19.46;46.91;97513.63;105271;1261;71842;-43
2023/10/07 10:37:38;;;;;;;5.90;3.50;;;;;;;19.47;46.98;97504.17;105038;1265;61267;-44
2023/10/07 10:40:14;;;;;;;8.10;3.20;;;;;;;19.47;46.89;97499.98;105227;1261;61381;-43
2023/10/07 10:42:43;;;;;;;5.70;3.10;;;;;;;19.47;47.01;97495.11;105101;1259;73340;-42
2023/10/07 10:45:20;;;;;;;6.70;3.30;;;;;;;19.48;46.87;97491.30;105107;1260;65992;-42
2023/10/07 10:47:52;;;;;;;5.40;3.00;;;;;;;19.48;46.87;97485.81;105720;1261;72670;-42
2023/10/07 10:50:23;;;;;;;4.80;3.00;;;;;;;19.49;46.97;97479.79;105122;1259;61141;-43
2023/10/07 10:52:54;;;;;;;7.00;3.20;;;;;;;19.50;46.92;97477.63;105621;1261;61395;-42
2023/10/07 10:55:25;;;;;;;7.20;2.90;;;;;;;19.51;47.00;97484.86;105247;1263;74647;-43
2023/10/07 10:57:52;;;;;;;6.30;2.60;;;;;;;19.51;46.93;97481.36;105192;1263;66015;-43
2023/10/07 11:00:21;;;;;;;4.40;2.60;;;;;;;19.51;46.98;97489.45;105066;1261;72619;-42
2023/10/07 11:02:49;;;;;;;6.70;3.00;;;;;;;19.51;47.00;97493.41;105777;1262;61456;-42
2023/10/07 11:05:17;;;;;;;5.00;2.80;;;;;;;19.52;47.08;97483.40;105461;1260;61192;-42
2023/10/07 11:07:46;;;;;;;6.40;3.10;;;;;;;19.52;47.08;97467.65;105312;1264;74582;-42
2023/10/07 11:10:22;;;;;;;4.10;2.70;;;;;;;19.52;47.05;97453.36;105101;1259;66118;-42
2023/10/07 11:12:52;;;;;;;7.30;3.30;;;;;;;19.52;47.19;97447.55;105522;1261;72588;-43
2023/10/07 11:15:26;;;;;;;9.70;2.80;;;;;;;19.53;47.16;97451.14;105141;1263;62286;-43
2023/10/07 11:17:58;;;;;;;8.80;2.80;;;;;;;19.55;47.19;97454.11;105595;1259;61321;-42
2023/10/07 11:20:32;;;;;;;6.50;2.60;;;;;;;19.56;47.16;97457.15;105230;1261;74338;-43
2023/10/07 11:23:00;;;;;;;9.10;3.00;;;;;;;19.57;47.38;97450.20;105513;1260;65114;-43
2023/10/07 11:25:28;;;;;;;5.90;2.90;;;;;;;19.58;47.52;97449.98;105452;1261;72610;-43
2023/10/07 11:27:55;;;;;;;12.40;2.70;;;;;;;19.58;47.45;97437.88;105590;1263;61290;-43
2023/10/07 11:30:24;;;;;;;5.10;2.80;;;;;;;19.59;47.50;97431.76;105271;1259;61397;-43
2023/10/07 11:32:51;;;;;;;9.50;3.30;;;;;;;19.59;47.63;97431.84;105807;1259;74630;-43
2023/10/07 11:35:27;;;;;;;7.60;2.80;;;;;;;19.59;47.62;97434.17;105251;1262;66289;-42
2023/10/07 11:38:02;;;;;;;8.20;2.70;;;;;;;19.61;47.67;97431.95;105553;1259;73040;-42
2023/10/07 11:40:30;;;;;;;10.30;3.00;;;;;;;19.62;47.79;97426.14;105503;1260;62090;-42
2023/10/07 11:43:04;;;;;;;6.70;2.80;;;;;;;19.62;47.88;97417.91;105408;1260;61372;-42
2023/10/07 11:45:32;;;;;;;6.80;2.50;;;;;;;19.63;47.88;97431.23;105098;1263;73108;-42
2023/10/07 11:47:59;;;;;;;4.20;2.60;;;;;;;19.65;48.08;97423.95;105632;1262;65796;-42
2023/10/07 11:50:27;;;;;;;8.90;3.00;;;;;;;19.65;48.05;97416.20;105152;1260;72608;-42
2023/10/07 11:52:55;;;;;;;9.00;3.00;;;;;;;19.66;48.28;97409.47;105676;1261;61256;-42
2023/10/07 11:55:22;;;;;;;13.40;3.40;;;;;;;19.66;48.31;97400.16;105425;1259;61287;-42
2023/10/07 11:57:49;;;;;;;5.90;2.90;;;;;;;19.67;48.35;97406.46;105090;1261;74504;-42
2023/10/07 12:00:23;;;;;;;9.80;2.80;;;;;;;19.68;48.44;97398.31;105338;1262;66120;-43
2023/10/07 12:02:52;;;;;;;8.40;2.80;;;;;;;19.69;48.43;97399.11;105967;1260;72462;-43
2023/10/07 12:05:19;;;;;;;6.80;2.80;;;;;;;19.71;48.40;97405.97;105332;1260;61367;-42
2023/10/07 12:07:47;;;;;;;5.90;2.60;;;;;;;19.72;48.53;97403.50;105387;1260;61375;-43
2023/10/07 12:10:17;;;;;;;7.30;2.50;;;;;;;19.73;48.49;97407.25;105484;1259;74601;-43
2023/10/07 12:12:45;;;;;;;6.20;2.70;;;;;;;19.75;48.60;97420.31;105444;1263;66041;-43
2023/10/07 12:15:15;;;;;;;6.90;3.00;;;;;;;19.76;48.66;97427.46;105415;1260;72615;-43
2023/10/07 12:17:44;;;;;;;5.90;2.10;;;;;;;19.76;48.65;97435.39;105788;1259;61269;-43
2023/10/07 12:20:20;;;;;;;6.00;2.90;;;;;;;19.78;48.65;97427.58;105558;1259;61412;-44
2023/10/07 12:22:47;;;;;;;7.60;2.70;;;;;;;19.78;48.80;97423.70;105989;1261;74431;-44
2023/10/07 12:25:16;;;;;;;9.70;2.90;;;;;;;19.78;48.90;97425.42;105512;1262;66257;-44
2023/10/07 12:27:44;;;;;;;6.80;2.90;;;;;;;19.79;48.84;97431.63;105516;1260;72425;-44
2023/10/07 12:30:12;;;;;;;9.80;3.00;;;;;;;19.79;48.90;97425.11;105490;1264;61276;-44